createdAt,value
2023-04-11T00:00:14.092Z,21.73
2023-04-11T00:01:14.131Z,21.74
2023-04-11T00:02:14.255Z,21.74
2023-04-11T00:03:14.363Z,21.73
2023-04-11T00:04:14.256Z,21.74
2023-04-11T00:05:14.227Z,21.73
2023-04-11T00:06:14.274Z,21.73
2023-04-11T00:07:14.306Z,21.74
2023-04-11T00:08:14.334Z,21.74
2023-04-11T00:09:15.329Z,21.74
2023-04-11T00:10:14.501Z,21.74
2023-04-11T00:11:14.420Z,21.73
2023-04-11T00:12:14.445Z,21.73
2023-04-11T00:13:14.490Z,21.73
2023-04-11T00:14:14.497Z,21.73
2023-04-11T00:15:14.508Z,21.73
2023-04-11T00:16:14.551Z,21.73
2023-04-11T00:17:14.560Z,21.73
2023-04-11T00:18:14.582Z,21.73
2023-04-11T00:19:14.641Z,21.73
2023-04-11T00:20:14.643Z,21.73
2023-04-11T00:21:14.669Z,21.74
2023-04-11T00:22:14.693Z,21.73
2023-04-11T00:23:14.714Z,21.73
2023-04-11T00:24:14.736Z,21.73
2023-04-11T00:25:14.770Z,21.73
2023-04-11T00:26:14.795Z,21.73
2023-04-11T00:27:14.837Z,21.73
2023-04-11T00:28:15.787Z,21.72
2023-04-11T00:29:14.896Z,21.73
2023-04-11T00:30:14.941Z,21.72
2023-04-11T00:31:16.005Z,21.73
2023-04-11T00:32:15.010Z,21.73
2023-04-11T00:33:15.046Z,21.73
2023-04-11T00:34:15.080Z,21.73
2023-04-11T00:35:15.100Z,21.72
2023-04-11T00:36:15.180Z,21.73
2023-04-11T00:37:15.188Z,21.73
2023-04-11T00:38:15.223Z,21.72
2023-04-11T00:39:15.235Z,21.73
2023-04-11T00:40:15.260Z,21.73
2023-04-11T00:41:15.310Z,21.73
2023-04-11T00:42:15.327Z,21.73
2023-04-11T00:43:15.348Z,21.72
2023-04-11T00:44:15.380Z,21.72
2023-04-11T00:45:15.430Z,21.73
2023-04-11T00:46:15.458Z,21.73
2023-04-11T00:47:15.478Z,21.72
2023-04-11T00:48:15.521Z,21.73
2023-04-11T00:49:15.516Z,21.73
2023-04-11T00:50:15.554Z,21.73
2023-04-11T00:51:16.564Z,21.73
2023-04-11T00:52:15.692Z,21.72
2023-04-11T00:53:15.715Z,21.73
2023-04-11T00:54:15.721Z,21.73
2023-04-11T00:55:15.986Z,21.74
2023-04-11T00:56:15.745Z,21.73
2023-04-11T00:57:15.768Z,21.73
2023-04-11T00:58:15.780Z,21.73
2023-04-11T00:59:15.820Z,21.73
2023-04-11T01:00:15.865Z,21.73
2023-04-11T01:01:15.972Z,21.73
2023-04-11T01:02:16.047Z,21.73
2023-04-11T01:03:16.169Z,21.73
2023-04-11T01:04:16.039Z,21.73
2023-04-11T01:05:16.033Z,21.72
2023-04-11T01:06:16.069Z,21.73
2023-04-11T01:07:16.113Z,21.72
2023-04-11T01:08:16.129Z,21.73
2023-04-11T01:09:16.169Z,21.73
2023-04-11T01:10:16.196Z,21.73
2023-04-11T01:11:16.241Z,21.72
2023-04-11T01:12:16.277Z,21.73
2023-04-11T01:13:16.306Z,21.73
2023-04-11T01:14:16.333Z,21.73
2023-04-11T01:15:16.380Z,21.73
2023-04-11T01:16:16.397Z,21.73
2023-04-11T01:17:16.440Z,21.72
2023-04-11T01:18:16.452Z,21.72
2023-04-11T01:19:16.499Z,21.72
2023-04-11T01:20:16.521Z,21.72
2023-04-11T01:21:17.569Z,21.72
2023-04-11T01:22:16.570Z,21.72
2023-04-11T01:23:16.595Z,21.72
2023-04-11T01:24:16.645Z,21.72
2023-04-11T01:25:16.693Z,21.72
2023-04-11T01:26:16.704Z,21.72
2023-04-11T01:27:16.733Z,21.72
2023-04-11T01:28:16.778Z,21.72
2023-04-11T01:29:16.802Z,21.72
2023-04-11T01:30:16.834Z,21.72
2023-04-11T01:31:16.911Z,21.72
2023-04-11T01:32:16.901Z,21.72
2023-04-11T01:33:16.935Z,21.72
2023-04-11T01:34:16.961Z,21.72
2023-04-11T01:35:16.993Z,21.72
2023-04-11T01:36:17.039Z,21.72
2023-04-11T01:37:17.061Z,21.73
2023-04-11T01:38:17.101Z,21.72
2023-04-11T01:39:17.133Z,21.72
2023-04-11T01:40:17.175Z,21.72
2023-04-11T01:41:17.200Z,21.72
2023-04-11T01:42:17.260Z,21.72
2023-04-11T01:43:17.280Z,21.72
2023-04-11T01:44:17.321Z,21.73
2023-04-11T01:45:17.332Z,21.72
2023-04-11T01:46:17.366Z,21.73
2023-04-11T01:47:17.419Z,21.73
2023-04-11T01:48:17.475Z,21.73
2023-04-11T01:49:17.465Z,21.73
2023-04-11T01:50:17.520Z,21.73
2023-04-11T01:51:17.541Z,21.72
2023-04-11T01:52:17.576Z,21.72
2023-04-11T01:53:17.600Z,21.73
2023-04-11T01:54:17.642Z,21.72
2023-04-11T01:55:17.686Z,21.72
2023-04-11T01:56:17.744Z,21.72
2023-04-11T01:57:17.747Z,21.72
2023-04-11T01:58:17.794Z,21.73
2023-04-11T01:59:18.331Z,21.71
2023-04-11T02:00:17.871Z,21.72
2023-04-11T02:01:17.955Z,21.72
2023-04-11T02:02:18.066Z,21.72
2023-04-11T02:03:18.105Z,21.72
2023-04-11T02:04:18.087Z,21.72
2023-04-11T02:05:18.013Z,21.72
2023-04-11T02:06:18.049Z,21.72
2023-04-11T02:07:18.111Z,21.72
2023-04-11T02:08:18.114Z,21.72
2023-04-11T02:09:18.153Z,21.72
2023-04-11T02:10:18.206Z,21.72
2023-04-11T02:11:18.226Z,21.72
2023-04-11T02:12:18.257Z,21.72
2023-04-11T02:13:18.277Z,21.72
2023-04-11T02:14:18.300Z,21.71
2023-04-11T02:15:18.344Z,21.72
2023-04-11T02:16:18.599Z,21.72
2023-04-11T02:17:18.412Z,21.71
2023-04-11T02:18:18.451Z,21.71
2023-04-11T02:19:18.455Z,21.71
2023-04-11T02:20:18.515Z,21.71
2023-04-11T02:21:19.383Z,21.72
2023-04-11T02:22:18.562Z,21.71
2023-04-11T02:23:18.612Z,21.71
2023-04-11T02:24:18.649Z,21.71
2023-04-11T02:25:18.684Z,21.72
2023-04-11T02:26:18.734Z,21.71
2023-04-11T02:27:18.754Z,21.71
2023-04-11T02:28:18.792Z,21.72
2023-04-11T02:29:18.847Z,21.72
2023-04-11T02:30:18.860Z,21.72
2023-04-11T02:31:18.963Z,21.71
2023-04-11T02:32:19.012Z,21.72
2023-04-11T02:33:19.018Z,21.71
2023-04-11T02:34:19.023Z,21.72
2023-04-11T02:35:19.058Z,21.72
2023-04-11T02:36:19.094Z,21.71
2023-04-11T02:37:19.148Z,21.71
2023-04-11T02:38:19.172Z,21.71
2023-04-11T02:39:19.187Z,21.72
2023-04-11T02:40:19.230Z,21.72
2023-04-11T02:41:19.856Z,21.72
2023-04-11T02:42:19.568Z,21.71
2023-04-11T02:43:19.386Z,21.71
2023-04-11T02:44:19.369Z,21.71
2023-04-11T02:45:19.395Z,21.71
2023-04-11T02:46:19.471Z,21.71
2023-04-11T02:47:19.487Z,21.71
2023-04-11T02:48:19.520Z,21.72
2023-04-11T02:49:19.547Z,21.72
2023-04-11T02:50:19.585Z,21.71
2023-04-11T02:51:19.684Z,21.71
2023-04-11T02:52:19.667Z,21.71
2023-04-11T02:53:19.701Z,21.71
2023-04-11T02:54:19.733Z,21.72
2023-04-11T02:55:19.790Z,21.71
2023-04-11T02:56:19.825Z,21.72
2023-04-11T02:57:19.887Z,21.71
2023-04-11T02:58:19.912Z,21.71
2023-04-11T02:59:19.941Z,21.71
2023-04-11T03:00:19.992Z,21.72
2023-04-11T03:01:20.055Z,21.71
2023-04-11T03:02:20.220Z,21.72
2023-04-11T03:03:20.236Z,21.71
2023-04-11T03:04:20.178Z,21.71
2023-04-11T03:05:20.199Z,21.72
2023-04-11T03:06:20.227Z,21.72
2023-04-11T03:07:20.288Z,21.70
2023-04-11T03:08:20.321Z,21.71
2023-04-11T03:09:20.354Z,21.71
2023-04-11T03:10:20.407Z,21.71
2023-04-11T03:11:20.446Z,21.72
2023-04-11T03:12:20.486Z,21.71
2023-04-11T03:13:20.524Z,21.71
2023-04-11T03:14:20.554Z,21.71
2023-04-11T03:15:20.603Z,21.71
2023-04-11T03:16:20.657Z,21.71
2023-04-11T03:17:20.698Z,21.71
2023-04-11T03:18:20.705Z,21.71
2023-04-11T03:19:20.745Z,21.71
2023-04-11T03:20:20.786Z,21.71
2023-04-11T03:21:20.817Z,21.71
2023-04-11T03:22:20.855Z,21.71
2023-04-11T03:23:20.902Z,21.70
2023-04-11T03:24:20.936Z,21.69
2023-04-11T03:25:20.970Z,21.71
2023-04-11T03:26:21.014Z,21.71
2023-04-11T03:27:21.054Z,21.70
2023-04-11T03:28:21.099Z,21.71
2023-04-11T03:29:21.101Z,21.71
2023-04-11T03:30:21.138Z,21.70
2023-04-11T03:31:21.196Z,21.70
2023-04-11T03:32:21.285Z,21.71
2023-04-11T03:33:21.247Z,21.70
2023-04-11T03:34:21.284Z,21.71
2023-04-11T03:35:21.326Z,21.71
2023-04-11T03:36:21.370Z,21.71
2023-04-11T03:37:21.392Z,21.71
2023-04-11T03:38:21.425Z,21.70
2023-04-11T03:39:21.476Z,21.70
2023-04-11T03:40:21.503Z,21.71
2023-04-11T03:41:21.548Z,21.70
2023-04-11T03:42:21.605Z,21.71
2023-04-11T03:43:21.608Z,21.70
2023-04-11T03:44:21.631Z,21.71
2023-04-11T03:45:22.529Z,21.71
2023-04-11T03:46:21.710Z,21.70
2023-04-11T03:47:21.773Z,21.71
2023-04-11T03:48:21.768Z,21.71
2023-04-11T03:49:21.790Z,21.71
2023-04-11T03:50:21.838Z,21.71
2023-04-11T03:51:21.851Z,21.71
2023-04-11T03:52:21.899Z,21.71
2023-04-11T03:53:21.946Z,21.70
2023-04-11T03:54:21.974Z,21.71
2023-04-11T03:55:22.012Z,21.71
2023-04-11T03:56:22.055Z,21.71
2023-04-11T03:57:22.083Z,21.70
2023-04-11T03:58:22.116Z,21.71
2023-04-11T03:59:22.149Z,21.70
2023-04-11T04:00:22.191Z,21.70
2023-04-11T04:01:22.214Z,21.70
2023-04-11T04:02:22.358Z,21.71
2023-04-11T04:03:22.449Z,21.70
2023-04-11T04:04:22.514Z,21.69
2023-04-11T04:05:22.358Z,21.70
2023-04-11T04:06:22.397Z,21.70
2023-04-11T04:07:22.420Z,21.70
2023-04-11T04:08:22.457Z,21.70
2023-04-11T04:09:22.504Z,21.71
2023-04-11T04:10:22.556Z,21.70
2023-04-11T04:11:22.576Z,21.70
2023-04-11T04:12:22.614Z,21.70
2023-04-11T04:13:22.657Z,21.71
2023-04-11T04:14:22.686Z,21.70
2023-04-11T04:15:22.721Z,21.70
2023-04-11T04:16:22.843Z,21.71
2023-04-11T04:17:22.790Z,21.71
2023-04-11T04:18:22.816Z,21.70
2023-04-11T04:19:22.850Z,21.70
2023-04-11T04:20:22.891Z,21.70
2023-04-11T04:21:22.922Z,21.69
2023-04-11T04:22:22.986Z,21.70
2023-04-11T04:23:23.000Z,21.70
2023-04-11T04:24:23.034Z,21.70
2023-04-11T04:25:25.588Z,21.71
2023-04-11T04:26:23.062Z,21.70
2023-04-11T04:27:23.039Z,21.69
2023-04-11T04:28:23.025Z,21.69
2023-04-11T04:29:23.006Z,21.69
2023-04-11T04:30:22.992Z,21.68
2023-04-11T04:31:23.019Z,21.68
2023-04-11T04:32:23.373Z,21.69
2023-04-11T04:33:22.951Z,21.69
2023-04-11T04:34:22.918Z,21.68
2023-04-11T04:35:22.886Z,21.69
2023-04-11T04:36:22.882Z,21.69
2023-04-11T04:37:22.887Z,21.69
2023-04-11T04:38:22.847Z,21.69
2023-04-11T04:39:22.828Z,21.69
2023-04-11T04:40:22.807Z,21.69
2023-04-11T04:41:22.834Z,21.70
2023-04-11T04:42:22.778Z,21.69
2023-04-11T04:43:22.757Z,21.68
2023-04-11T04:44:23.430Z,21.68
2023-04-11T04:45:22.882Z,21.69
2023-04-11T04:46:22.916Z,21.69
2023-04-11T04:47:22.739Z,21.69
2023-04-11T04:48:22.666Z,21.68
2023-04-11T04:49:22.667Z,21.68
2023-04-11T04:50:22.615Z,21.70
2023-04-11T04:51:22.620Z,21.69
2023-04-11T04:52:22.568Z,21.69
2023-04-11T04:53:22.552Z,21.70
2023-04-11T04:54:22.533Z,21.70
2023-04-11T04:55:22.522Z,21.71
2023-04-11T04:56:22.545Z,21.70
2023-04-11T04:57:22.468Z,21.71
2023-04-11T04:58:22.455Z,21.70
2023-04-11T04:59:22.420Z,21.70
2023-04-11T05:00:23.233Z,21.70
2023-04-11T05:01:22.422Z,21.71
2023-04-11T05:02:22.435Z,21.70
2023-04-11T05:03:22.478Z,21.69
2023-04-11T05:04:22.439Z,21.70
2023-04-11T05:05:22.303Z,21.69
2023-04-11T05:06:22.388Z,21.70
2023-04-11T05:07:22.392Z,21.70
2023-04-11T05:08:22.403Z,21.70
2023-04-11T05:09:22.450Z,21.69
2023-04-11T05:10:22.495Z,21.70
2023-04-11T05:11:22.552Z,21.70
2023-04-11T05:12:22.543Z,21.70
2023-04-11T05:13:22.753Z,21.69
2023-04-11T05:14:22.637Z,21.69
2023-04-11T05:15:22.671Z,21.69
2023-04-11T05:16:22.784Z,21.70
2023-04-11T05:17:24.672Z,21.69
2023-04-11T05:18:22.961Z,21.68
2023-04-11T05:19:23.065Z,21.70
2023-04-11T05:20:23.041Z,21.70
2023-04-11T05:21:23.073Z,21.71
2023-04-11T05:22:23.154Z,21.72
2023-04-11T05:23:23.156Z,21.72
2023-04-11T05:24:23.184Z,21.73
2023-04-11T05:25:23.228Z,21.73
2023-04-11T05:26:23.276Z,21.74
2023-04-11T05:27:23.315Z,21.75
2023-04-11T05:28:23.347Z,21.79
2023-04-11T05:29:23.377Z,21.82
2023-04-11T05:30:23.427Z,21.86
2023-04-11T05:31:23.459Z,21.88
2023-04-11T05:32:23.496Z,21.90
2023-04-11T05:33:23.509Z,21.94
2023-04-11T05:34:23.551Z,21.97
2023-04-11T05:35:23.523Z,22.02
2023-04-11T05:36:25.434Z,22.06
2023-04-11T05:37:23.518Z,22.10
2023-04-11T05:38:23.542Z,22.14
2023-04-11T05:39:24.414Z,22.19
2023-04-11T05:40:23.505Z,22.23
2023-04-11T05:41:23.484Z,22.28
2023-04-11T05:42:23.466Z,22.32
2023-04-11T05:43:23.446Z,22.36
2023-04-11T05:44:23.448Z,22.39
2023-04-11T05:45:24.339Z,22.42
2023-04-11T05:46:23.444Z,22.46
2023-04-11T05:47:23.453Z,22.48
2023-04-11T05:48:23.381Z,22.51
2023-04-11T05:49:23.394Z,22.54
2023-04-11T05:50:23.357Z,22.56
2023-04-11T05:51:23.335Z,22.60
2023-04-11T05:52:23.327Z,22.62
2023-04-11T05:53:23.329Z,22.64
2023-04-11T05:54:23.334Z,22.67
2023-04-11T05:55:23.334Z,22.70
2023-04-11T05:56:23.362Z,22.72
2023-04-11T05:57:23.383Z,22.67
2023-04-11T05:58:23.362Z,22.56
2023-04-11T05:59:26.514Z,22.47
2023-04-11T06:00:24.331Z,22.38
2023-04-11T06:01:23.304Z,22.26
2023-04-11T06:02:23.354Z,22.15
2023-04-11T06:03:23.378Z,22.06
2023-04-11T06:04:23.464Z,22.03
2023-04-11T06:05:23.246Z,22.05
2023-04-11T06:06:23.206Z,22.10
2023-04-11T06:07:23.184Z,22.15
2023-04-11T06:08:23.163Z,22.21
2023-04-11T06:09:23.122Z,22.26
2023-04-11T06:10:23.101Z,22.32
2023-04-11T06:11:23.064Z,22.38
2023-04-11T06:12:23.032Z,22.43
2023-04-11T06:13:23.006Z,22.48
2023-04-11T06:14:22.975Z,22.52
2023-04-11T06:15:22.939Z,22.56
2023-04-11T06:16:22.967Z,22.60
2023-04-11T06:17:22.924Z,22.64
2023-04-11T06:18:22.848Z,22.68
2023-04-11T06:19:22.821Z,22.71
2023-04-11T06:20:22.868Z,22.74
2023-04-11T06:21:22.801Z,22.76
2023-04-11T06:22:22.810Z,22.79
2023-04-11T06:23:23.805Z,22.79
2023-04-11T06:24:22.774Z,22.80
2023-04-11T06:25:22.712Z,22.81
2023-04-11T06:26:22.678Z,22.83
2023-04-11T06:27:22.636Z,22.83
2023-04-11T06:28:22.617Z,22.84
2023-04-11T06:29:22.567Z,22.72
2023-04-11T06:30:22.541Z,22.27
2023-04-11T06:31:22.529Z,21.79
2023-04-11T06:32:22.539Z,21.33
2023-04-11T06:33:22.499Z,21.05
2023-04-11T06:34:23.354Z,20.95
2023-04-11T06:35:22.477Z,20.98
2023-04-11T06:36:22.471Z,21.09
2023-04-11T06:37:22.463Z,21.22
2023-04-11T06:38:22.461Z,21.35
2023-04-11T06:39:22.475Z,21.47
2023-04-11T06:40:22.506Z,21.59
2023-04-11T06:41:22.543Z,21.71
2023-04-11T06:42:22.561Z,21.82
2023-04-11T06:43:22.583Z,21.93
2023-04-11T06:44:23.456Z,22.02
2023-04-11T06:45:22.584Z,22.12
2023-04-11T06:46:22.576Z,22.20
2023-04-11T06:47:22.591Z,22.29
2023-04-11T06:48:22.521Z,22.36
2023-04-11T06:49:22.528Z,22.43
2023-04-11T06:50:22.516Z,22.48
2023-04-11T06:51:22.513Z,22.55
2023-04-11T06:52:22.520Z,22.20
2023-04-11T06:53:22.507Z,21.74
2023-04-11T06:54:22.512Z,21.31
2023-04-11T06:55:22.500Z,20.93
2023-04-11T06:56:22.541Z,20.62
2023-04-11T06:57:22.574Z,20.24
2023-04-11T06:58:22.598Z,20.07
2023-04-11T06:59:23.900Z,19.98
2023-04-11T07:00:22.619Z,19.96
2023-04-11T07:01:22.655Z,20.09
2023-04-11T07:02:22.766Z,20.26
2023-04-11T07:03:22.809Z,20.45
2023-04-11T07:04:22.873Z,20.61
2023-04-11T07:05:22.761Z,20.77
2023-04-11T07:06:22.776Z,20.93
2023-04-11T07:07:22.773Z,21.09
2023-04-11T07:08:22.769Z,21.23
2023-04-11T07:09:22.787Z,21.37
2023-04-11T07:10:22.835Z,21.49
2023-04-11T07:11:22.863Z,21.63
2023-04-11T07:12:22.889Z,21.76
2023-04-11T07:13:22.904Z,21.87
2023-04-11T07:14:22.902Z,21.96
2023-04-11T07:15:22.885Z,22.06
2023-04-11T07:16:22.897Z,22.16
2023-04-11T07:17:22.876Z,22.23
2023-04-11T07:18:22.851Z,22.29
2023-04-11T07:19:22.835Z,22.34
2023-04-11T07:20:22.828Z,22.38
2023-04-11T07:21:22.818Z,22.40
2023-04-11T07:22:23.454Z,22.42
2023-04-11T07:23:23.775Z,22.41
2023-04-11T07:24:22.747Z,22.42
2023-04-11T07:25:22.838Z,22.42
2023-04-11T07:26:22.700Z,22.42
2023-04-11T07:27:22.681Z,22.41
2023-04-11T07:28:22.650Z,22.41
2023-04-11T07:29:22.623Z,22.42
2023-04-11T07:30:22.615Z,22.42
2023-04-11T07:31:22.627Z,22.42
2023-04-11T07:32:22.656Z,22.41
2023-04-11T07:33:22.535Z,22.41
2023-04-11T07:34:22.554Z,22.40
2023-04-11T07:35:22.541Z,22.40
2023-04-11T07:36:22.473Z,22.39
2023-04-11T07:37:22.441Z,22.39
2023-04-11T07:38:22.422Z,22.39
2023-04-11T07:39:22.402Z,22.39
2023-04-11T07:40:22.381Z,22.39
2023-04-11T07:41:22.356Z,22.38
2023-04-11T07:42:22.957Z,22.38
2023-04-11T07:43:22.325Z,22.38
2023-04-11T07:44:23.969Z,22.38
2023-04-11T07:45:22.350Z,22.38
2023-04-11T07:46:22.273Z,22.37
2023-04-11T07:47:22.287Z,22.37
2023-04-11T07:48:22.266Z,22.38
2023-04-11T07:49:22.225Z,22.37
2023-04-11T07:50:22.216Z,22.37
2023-04-11T07:51:22.191Z,22.37
2023-04-11T07:52:22.177Z,22.37
2023-04-11T07:53:22.156Z,22.37
2023-04-11T07:54:22.133Z,22.37
2023-04-11T07:55:22.132Z,22.37
2023-04-11T07:56:22.096Z,22.38
2023-04-11T07:57:22.126Z,22.37
2023-04-11T07:58:22.055Z,22.37
2023-04-11T07:59:22.048Z,22.37
2023-04-11T08:00:22.018Z,22.38
2023-04-11T08:01:22.008Z,22.37
2023-04-11T08:02:22.071Z,22.38
2023-04-11T08:03:22.098Z,22.38
2023-04-11T08:04:22.180Z,22.38
2023-04-11T08:05:21.947Z,22.38
2023-04-11T08:06:21.922Z,22.38
2023-04-11T08:07:21.893Z,22.38
2023-04-11T08:08:21.877Z,22.38
2023-04-11T08:09:21.851Z,22.38
2023-04-11T08:10:21.857Z,22.37
2023-04-11T08:11:21.843Z,22.38
2023-04-11T08:12:21.805Z,22.40
2023-04-11T08:13:21.789Z,22.41
2023-04-11T08:14:21.771Z,22.42
2023-04-11T08:15:21.750Z,22.40
2023-04-11T08:16:21.772Z,22.39
2023-04-11T08:17:28.290Z,22.36
2023-04-11T08:18:22.711Z,22.32
2023-04-11T08:19:21.665Z,22.32
2023-04-11T08:20:21.643Z,22.31
2023-04-11T08:21:21.610Z,22.31
2023-04-11T08:22:21.604Z,22.33
2023-04-11T08:23:21.549Z,22.33
2023-04-11T08:24:21.518Z,22.32
2023-04-11T08:25:21.488Z,22.31
2023-04-11T08:26:21.463Z,22.31
2023-04-11T08:27:21.981Z,22.28
2023-04-11T08:28:21.384Z,22.27
2023-04-11T08:29:21.379Z,22.28
2023-04-11T08:30:21.411Z,22.31
2023-04-11T08:31:21.369Z,22.34
2023-04-11T08:32:21.316Z,22.39
2023-04-11T08:33:21.260Z,22.42
2023-04-11T08:34:21.241Z,22.46
2023-04-11T08:35:21.223Z,22.50
2023-04-11T08:36:21.191Z,22.54
2023-04-11T08:37:21.159Z,22.59
2023-04-11T08:38:21.141Z,22.61
2023-04-11T08:39:21.086Z,22.65
2023-04-11T08:40:21.045Z,22.69
2023-04-11T08:41:21.042Z,22.72
2023-04-11T08:42:21.007Z,22.75
2023-04-11T08:43:21.003Z,22.77
2023-04-11T08:44:20.999Z,22.80
2023-04-11T08:45:20.999Z,22.81
2023-04-11T08:46:20.984Z,22.83
2023-04-11T08:47:21.000Z,22.85
2023-04-11T08:48:20.963Z,22.87
2023-04-11T08:49:21.021Z,22.90
2023-04-11T08:50:21.002Z,22.93
2023-04-11T08:51:21.035Z,22.96
2023-04-11T08:52:21.062Z,22.98
2023-04-11T08:53:21.082Z,23.02
2023-04-11T08:54:21.121Z,23.03
2023-04-11T08:55:21.161Z,23.05
2023-04-11T08:56:21.205Z,23.08
2023-04-11T08:57:21.172Z,23.10
2023-04-11T08:58:21.197Z,23.10
2023-04-11T08:59:21.197Z,23.11
2023-04-11T09:00:21.202Z,23.13
2023-04-11T09:01:21.301Z,23.15
2023-04-11T09:02:21.329Z,23.16
2023-04-11T09:03:21.462Z,23.19
2023-04-11T09:04:21.300Z,23.19
2023-04-11T09:05:21.988Z,23.19
2023-04-11T09:06:21.265Z,23.20
2023-04-11T09:07:21.262Z,23.21
2023-04-11T09:08:21.255Z,23.22
2023-04-11T09:09:21.261Z,23.22
2023-04-11T09:10:21.355Z,23.23
2023-04-11T09:11:21.272Z,23.23
2023-04-11T09:12:21.287Z,23.23
2023-04-11T09:13:21.294Z,23.24
2023-04-11T09:14:21.342Z,23.25
2023-04-11T09:15:21.310Z,23.26
2023-04-11T09:16:21.423Z,23.26
2023-04-11T09:17:21.344Z,23.26
2023-04-11T09:18:21.343Z,23.26
2023-04-11T09:19:21.333Z,23.26
2023-04-11T09:20:21.364Z,23.23
2023-04-11T09:21:21.382Z,23.21
2023-04-11T09:22:21.378Z,23.18
2023-04-11T09:23:21.390Z,23.15
2023-04-11T09:24:21.406Z,23.13
2023-04-11T09:25:21.458Z,23.11
2023-04-11T09:26:23.211Z,23.08
2023-04-11T09:27:21.427Z,23.06
2023-04-11T09:28:21.392Z,23.04
2023-04-11T09:29:21.354Z,23.01
2023-04-11T09:30:21.922Z,22.99
2023-04-11T09:31:21.322Z,22.96
2023-04-11T09:32:21.310Z,22.95
2023-04-11T09:33:21.224Z,22.92
2023-04-11T09:34:21.217Z,22.90
2023-04-11T09:35:21.149Z,22.88
2023-04-11T09:36:21.114Z,22.87
2023-04-11T09:37:21.079Z,22.85
2023-04-11T09:38:21.039Z,22.83
2023-04-11T09:39:21.012Z,22.81
2023-04-11T09:40:20.976Z,22.79
2023-04-11T09:41:20.932Z,22.78
2023-04-11T09:42:20.884Z,22.77
2023-04-11T09:43:20.859Z,22.75
2023-04-11T09:44:20.840Z,22.74
2023-04-11T09:45:20.808Z,22.74
2023-04-11T09:46:20.837Z,22.73
2023-04-11T09:47:20.748Z,22.71
2023-04-11T09:48:22.098Z,22.71
2023-04-11T09:49:20.646Z,22.70
2023-04-11T09:50:20.626Z,22.69
2023-04-11T09:51:28.196Z,22.68
2023-04-11T09:52:21.538Z,22.66
2023-04-11T09:53:20.499Z,22.66
2023-04-11T09:54:20.467Z,22.65
2023-04-11T09:55:20.449Z,22.64
2023-04-11T09:56:20.400Z,22.64
2023-04-11T09:57:20.367Z,22.63
2023-04-11T09:58:20.312Z,22.63
2023-04-11T09:59:20.288Z,22.62
2023-04-11T10:00:20.263Z,22.62
2023-04-11T10:01:20.294Z,22.61
2023-04-11T10:02:20.228Z,22.61
2023-04-11T10:03:20.340Z,22.61
2023-04-11T10:04:20.124Z,22.60
2023-04-11T10:05:20.075Z,22.59
2023-04-11T10:06:20.034Z,22.59
2023-04-11T10:07:20.005Z,22.59
2023-04-11T10:08:19.971Z,22.58
2023-04-11T10:09:19.940Z,22.57
2023-04-11T10:10:19.969Z,22.57
2023-04-11T10:11:19.872Z,22.56
2023-04-11T10:12:19.840Z,22.56
2023-04-11T10:13:19.816Z,22.56
2023-04-11T10:14:19.768Z,22.56
2023-04-11T10:15:19.729Z,22.55
2023-04-11T10:16:19.720Z,22.54
2023-04-11T10:17:22.566Z,22.54
2023-04-11T10:18:19.636Z,22.54
2023-04-11T10:19:19.602Z,22.53
2023-04-11T10:20:20.543Z,22.53
2023-04-11T10:21:19.529Z,22.53
2023-04-11T10:22:21.020Z,22.52
2023-04-11T10:23:19.479Z,22.52
2023-04-11T10:24:19.442Z,22.51
2023-04-11T10:25:19.459Z,22.52
2023-04-11T10:26:19.371Z,22.51
2023-04-11T10:27:20.338Z,22.50
2023-04-11T10:28:19.290Z,22.51
2023-04-11T10:29:19.275Z,22.50
2023-04-11T10:30:19.349Z,22.50
2023-04-11T10:31:19.216Z,22.51
2023-04-11T10:32:20.168Z,22.50
2023-04-11T10:33:20.056Z,22.50
2023-04-11T10:34:19.093Z,22.50
2023-04-11T10:35:19.056Z,22.50
2023-04-11T10:36:20.813Z,22.50
2023-04-11T10:37:18.999Z,22.49
2023-04-11T10:38:19.453Z,22.49
2023-04-11T10:39:18.939Z,22.49
2023-04-11T10:40:18.970Z,22.48
2023-04-11T10:41:18.906Z,22.48
2023-04-11T10:42:18.849Z,22.48
2023-04-11T10:43:18.826Z,22.48
2023-04-11T10:44:18.791Z,22.49
2023-04-11T10:45:18.762Z,22.49
2023-04-11T10:46:18.770Z,22.48
2023-04-11T10:47:18.859Z,22.48
2023-04-11T10:48:18.670Z,22.47
2023-04-11T10:49:18.649Z,22.47
2023-04-11T10:50:18.662Z,22.47
2023-04-11T10:51:18.603Z,22.47
2023-04-11T10:52:18.630Z,22.46
2023-04-11T10:53:18.536Z,22.46
2023-04-11T10:54:18.508Z,22.46
2023-04-11T10:55:18.478Z,22.46
2023-04-11T10:56:18.459Z,22.45
2023-04-11T10:57:18.425Z,22.45
2023-04-11T10:58:18.398Z,22.44
2023-04-11T10:59:18.372Z,22.44
2023-04-11T11:00:18.426Z,22.43
2023-04-11T11:01:31.235Z,22.44
2023-04-11T11:02:19.729Z,22.42
2023-04-11T11:03:18.381Z,22.43
2023-04-11T11:04:18.667Z,22.43
2023-04-11T11:05:18.228Z,22.42
2023-04-11T11:06:18.193Z,22.43
2023-04-11T11:07:18.172Z,22.43
2023-04-11T11:08:18.151Z,22.42
2023-04-11T11:09:18.118Z,22.42
2023-04-11T11:10:18.121Z,22.42
2023-04-11T11:11:18.058Z,22.42
2023-04-11T11:12:19.001Z,22.42
2023-04-11T11:13:17.969Z,22.42
2023-04-11T11:14:17.945Z,22.42
2023-04-11T11:15:17.924Z,22.43
2023-04-11T11:16:17.963Z,22.42
2023-04-11T11:17:17.849Z,22.43
2023-04-11T11:18:17.823Z,22.43
2023-04-11T11:19:17.803Z,22.43
2023-04-11T11:20:17.797Z,22.42
2023-04-11T11:21:26.532Z,22.43
2023-04-11T11:22:18.731Z,22.42
2023-04-11T11:23:17.696Z,22.43
2023-04-11T11:24:17.679Z,22.43
2023-04-11T11:25:17.684Z,22.42
2023-04-11T11:26:17.711Z,22.42
2023-04-11T11:27:17.601Z,22.42
2023-04-11T11:28:17.577Z,22.42
2023-04-11T11:29:18.465Z,22.42
2023-04-11T11:30:17.639Z,22.42
2023-04-11T11:31:17.490Z,22.42
2023-04-11T11:32:17.467Z,22.42
2023-04-11T11:33:17.433Z,22.43
2023-04-11T11:35:17.387Z,22.42
2023-04-11T11:36:17.381Z,22.43
2023-04-11T11:37:17.346Z,22.43
2023-04-11T11:38:17.341Z,22.43
2023-04-11T11:39:17.311Z,22.42
2023-04-11T11:40:17.284Z,22.43
2023-04-11T11:41:17.251Z,22.43
2023-04-11T11:42:17.231Z,22.43
2023-04-11T11:43:17.206Z,22.43
2023-04-11T11:44:17.170Z,22.43
2023-04-11T11:45:17.170Z,22.43
2023-04-11T11:46:17.200Z,22.42
2023-04-11T11:47:17.136Z,22.42
2023-04-11T11:48:17.070Z,22.42
2023-04-11T11:49:17.051Z,22.42
2023-04-11T11:50:17.006Z,22.42
2023-04-11T11:51:16.978Z,22.42
2023-04-11T11:52:16.970Z,22.41
2023-04-11T11:53:16.924Z,22.42
2023-04-11T11:54:16.887Z,22.42
2023-04-11T11:55:16.848Z,22.41
2023-04-11T11:56:16.831Z,22.42
2023-04-11T11:57:16.825Z,22.42
2023-04-11T11:58:16.777Z,22.42
2023-04-11T11:59:16.752Z,22.41
2023-04-11T12:00:16.717Z,22.42
2023-04-11T12:01:16.772Z,22.41
2023-04-11T12:02:16.731Z,22.41
2023-04-11T12:03:16.746Z,22.41
2023-04-11T12:04:16.639Z,22.41
2023-04-11T12:05:16.617Z,22.41
2023-04-11T12:06:16.532Z,22.41
2023-04-11T12:07:17.480Z,22.41
2023-04-11T12:08:16.461Z,22.41
2023-04-11T12:09:16.429Z,22.41
2023-04-11T12:10:16.386Z,22.41
2023-04-11T12:11:16.361Z,22.41
2023-04-11T12:12:16.319Z,22.41
2023-04-11T12:13:16.294Z,22.41
2023-04-11T12:14:16.261Z,22.41
2023-04-11T12:15:16.217Z,22.41
2023-04-11T12:16:16.289Z,22.41
2023-04-11T12:17:16.149Z,22.40
2023-04-11T12:18:16.153Z,22.40
2023-04-11T12:19:16.087Z,22.40
2023-04-11T12:20:16.050Z,22.41
2023-04-11T12:21:16.022Z,22.40
2023-04-11T12:22:16.023Z,22.39
2023-04-11T12:23:15.987Z,22.40
2023-04-11T12:24:15.941Z,22.40
2023-04-11T12:25:15.901Z,22.40
2023-04-11T12:26:15.885Z,22.39
2023-04-11T12:27:15.851Z,22.39
2023-04-11T12:28:15.849Z,22.38
2023-04-11T12:29:15.906Z,22.39
2023-04-11T12:30:15.981Z,22.39
2023-04-11T12:31:15.806Z,22.39
2023-04-11T12:32:15.699Z,22.38
2023-04-11T12:33:15.673Z,22.38
2023-04-11T12:34:15.656Z,22.38
2023-04-11T12:35:15.622Z,22.38
2023-04-11T12:36:15.597Z,22.38
2023-04-11T12:37:15.582Z,22.38
2023-04-11T12:38:17.679Z,22.38
2023-04-11T12:39:15.521Z,22.37
2023-04-11T12:40:15.499Z,22.37
2023-04-11T12:42:18.671Z,22.36
2023-04-11T12:43:15.436Z,22.34
2023-04-11T12:44:15.452Z,22.34
2023-04-11T12:44:22.842Z,22.36
2023-04-11T12:45:15.477Z,22.34
2023-04-11T12:46:15.490Z,22.34
2023-04-11T12:47:15.425Z,22.34
2023-04-11T12:48:15.425Z,22.33
2023-04-11T12:49:15.409Z,22.33
2023-04-11T12:50:15.406Z,22.32
2023-04-11T12:51:15.379Z,22.32
2023-04-11T12:52:15.376Z,22.32
2023-04-11T12:53:15.358Z,22.32